Time;durP1;ratioP1;P1;durP2;ratioP2;P2;SDS_P1;SDS_P2;PMS_P1;PMS_P2;Temp;Humidity;BMP_temperature;BMP_pressure;BME280_temperature;BME280_humidity;BME280_pressure;Samples;Min_cycle;Max_cycle;Signal;HPM_P1;HPM_P2
2023/12/10 00:01:34;;;;;;;14.70;2.67;;;;;;;;;;6113662;23;20128;-88
2023/12/10 00:04:00;;;;;;;13.82;3.00;;;;;;;;;;6087019;23;20022;-88
2023/12/10 00:06:26;;;;;;;15.35;2.88;;;;;;;;;;6112342;23;20053;-88
2023/12/10 00:08:58;;;;;;;13.40;2.60;;;;;;;;;;6061870;23;20041;-88
2023/12/10 00:11:24;;;;;;;16.27;2.95;;;;;;;;;;6064358;23;20022;-88
2023/12/10 00:13:50;;;;;;;17.10;3.05;;;;;;;;;;6110231;23;20295;-88
2023/12/10 00:16:16;;;;;;;15.32;2.83;;;;;;;;;;6087463;23;20105;-88
2023/12/10 00:18:42;;;;;;;19.40;3.00;;;;;;;;;;6112152;23;20089;-88
2023/12/10 00:21:12;;;;;;;16.52;2.88;;;;;;;;;;6110415;23;20435;-87
2023/12/10 00:23:38;;;;;;;15.45;2.90;;;;;;;;;;6063808;23;20029;-88
2023/12/10 00:26:04;;;;;;;16.33;4.57;;;;;;;;;;6109336;23;20017;-88
2023/12/10 00:28:32;;;;;;;23.85;2.90;;;;;;;;;;6113983;23;20017;-88
2023/12/10 00:30:59;;;;;;;13.70;3.05;;;;;;;;;;6086757;23;20013;-87
2023/12/10 00:33:25;;;;;;;22.85;3.65;;;;;;;;;;6065882;23;20028;-87
2023/12/10 00:35:54;;;;;;;19.85;3.55;;;;;;;;;;6089150;23;20029;-88
2023/12/10 00:38:20;;;;;;;16.20;3.88;;;;;;;;;;6089986;23;20010;-87
2023/12/10 00:40:46;;;;;;;15.27;2.80;;;;;;;;;;6064472;23;20037;-88
2023/12/10 00:43:14;;;;;;;16.20;2.72;;;;;;;;;;6111481;23;20009;-87
2023/12/10 00:45:40;;;;;;;21.98;2.70;;;;;;;;;;6087718;23;20093;-88
2023/12/10 00:48:06;;;;;;;22.75;3.28;;;;;;;;;;6060966;23;20033;-87
2023/12/10 00:50:32;;;;;;;15.85;3.22;;;;;;;;;;6111833;23;20049;-88
2023/12/10 00:52:58;;;;;;;20.48;3.45;;;;;;;;;;6107917;23;20363;-87
2023/12/10 00:55:24;;;;;;;14.38;3.17;;;;;;;;;;6063318;23;20600;-87
2023/12/10 00:57:50;;;;;;;15.50;3.97;;;;;;;;;;6109477;23;20021;-87
2023/12/10 01:00:17;;;;;;;15.18;3.22;;;;;;;;;;6112659;23;20104;-88
2023/12/10 01:02:43;;;;;;;15.75;3.53;;;;;;;;;;6064090;23;20112;-87
2023/12/10 01:05:09;;;;;;;18.35;3.92;;;;;;;;;;6057860;23;20601;-87
2023/12/10 01:07:35;;;;;;;13.65;2.90;;;;;;;;;;6087702;23;20018;-87
2023/12/10 01:10:05;;;;;;;15.88;3.53;;;;;;;;;;6062437;23;20032;-88
2023/12/10 01:12:35;;;;;;;13.15;2.65;;;;;;;;;;6041919;23;20018;-87
2023/12/10 01:15:03;;;;;;;18.95;2.65;;;;;;;;;;6061241;23;20439;-88
2023/12/10 01:17:29;;;;;;;13.95;2.38;;;;;;;;;;6089275;23;20018;-88
2023/12/10 01:19:55;;;;;;;10.07;2.45;;;;;;;;;;6058101;23;20089;-88
2023/12/10 01:22:21;;;;;;;14.25;2.35;;;;;;;;;;6063141;23;20453;-88
2023/12/10 01:24:47;;;;;;;13.57;2.83;;;;;;;;;;6060716;23;20025;-88
2023/12/10 01:27:14;;;;;;;12.70;2.42;;;;;;;;;;6063962;23;20022;-88
2023/12/10 01:29:40;;;;;;;16.70;2.45;;;;;;;;;;6089546;23;20018;-87
2023/12/10 01:32:06;;;;;;;15.63;2.50;;;;;;;;;;6061266;23;20085;-88
2023/12/10 01:34:34;;;;;;;12.27;3.35;;;;;;;;;;6090474;23;20024;-88
2023/12/10 01:37:00;;;;;;;15.25;2.67;;;;;;;;;;6087738;23;20101;-88
2023/12/10 01:39:30;;;;;;;12.30;2.63;;;;;;;;;;6089113;23;20053;-88
2023/12/10 01:41:56;;;;;;;13.00;2.53;;;;;;;;;;6085794;23;20469;-88
2023/12/10 01:44:23;;;;;;;18.33;2.97;;;;;;;;;;6087957;23;20120;-88
2023/12/10 01:46:49;;;;;;;14.95;2.47;;;;;;;;;;6060449;23;20013;-88
2023/12/10 01:49:15;;;;;;;13.50;3.20;;;;;;;;;;6064211;23;20022;-88
2023/12/10 01:51:41;;;;;;;7.88;1.95;;;;;;;;;;6064976;23;20032;-88
2023/12/10 01:54:07;;;;;;;17.17;3.72;;;;;;;;;;6062109;23;20452;-88
2023/12/10 01:56:33;;;;;;;12.35;3.15;;;;;;;;;;6088087;23;20022;-88
2023/12/10 01:58:59;;;;;;;17.20;3.00;;;;;;;;;;6084910;23;20022;-88
2023/12/10 02:01:26;;;;;;;14.40;2.40;;;;;;;;;;6063973;23;20017;-88
2023/12/10 02:03:52;;;;;;;9.57;2.00;;;;;;;;;;6085679;23;20017;-88
2023/12/10 02:06:18;;;;;;;11.82;3.53;;;;;;;;;;6087879;23;20018;-88
2023/12/10 02:08:44;;;;;;;17.60;3.33;;;;;;;;;;6114691;23;20036;-88
2023/12/10 02:11:10;;;;;;;13.88;3.58;;;;;;;;;;6102915;23;20025;-88
2023/12/10 02:13:36;;;;;;;15.75;2.90;;;;;;;;;;6115516;23;20060;-88
2023/12/10 02:16:02;;;;;;;13.30;3.38;;;;;;;;;;6139112;23;20068;-88
2023/12/10 02:18:28;;;;;;;21.92;3.00;;;;;;;;;;6142795;23;20017;-87
2023/12/10 02:20:55;;;;;;;14.32;3.10;;;;;;;;;;6115023;23;20025;-87
2023/12/10 02:23:33;;;;;;;15.27;3.05;;;;;;;;;;6140652;23;20084;-88
2023/12/10 02:25:59;;;;;;;14.05;2.45;;;;;;;;;;6139949;23;20028;-88
2023/12/10 02:28:25;;;;;;;11.77;2.70;;;;;;;;;;6118229;23;20084;-88
2023/12/10 02:30:51;;;;;;;17.52;3.38;;;;;;;;;;6139192;23;20390;-87
2023/12/10 02:33:17;;;;;;;14.07;3.08;;;;;;;;;;6118278;23;20018;-88
2023/12/10 02:35:43;;;;;;;14.18;3.10;;;;;;;;;;6141273;23;20017;-88
2023/12/10 02:38:09;;;;;;;14.13;2.92;;;;;;;;;;6141638;23;20106;-88
2023/12/10 02:40:35;;;;;;;18.15;2.65;;;;;;;;;;6141980;23;20608;-87
2023/12/10 02:43:02;;;;;;;15.00;2.50;;;;;;;;;;6140211;23;20013;-88
2023/12/10 02:45:28;;;;;;;23.95;3.55;;;;;;;;;;6143226;23;20009;-88
2023/12/10 02:47:54;;;;;;;12.07;3.05;;;;;;;;;;6138226;23;20021;-87
2023/12/10 02:50:20;;;;;;;16.52;2.60;;;;;;;;;;6142070;23;20088;-87
2023/12/10 02:52:49;;;;;;;14.95;2.72;;;;;;;;;;6138140;23;20025;-88
2023/12/10 02:55:15;;;;;;;17.58;2.63;;;;;;;;;;6117593;23;20350;-88
2023/12/10 02:57:41;;;;;;;11.60;3.00;;;;;;;;;;6116325;23;20331;-87
2023/12/10 03:00:08;;;;;;;14.77;2.83;;;;;;;;;;6138626;23;20023;-88
2023/12/10 03:02:34;;;;;;;14.73;2.25;;;;;;;;;;6141538;23;20025;-88
2023/12/10 03:05:00;;;;;;;11.48;2.42;;;;;;;;;;6139000;23;20017;-88
2023/12/10 03:07:26;;;;;;;13.05;2.70;;;;;;;;;;6142545;23;20089;-88
2023/12/10 03:09:52;;;;;;;18.67;2.55;;;;;;;;;;6137556;23;20018;-87
2023/12/10 03:12:18;;;;;;;18.67;4.28;;;;;;;;;;6140365;23;20028;-87
2023/12/10 03:14:44;;;;;;;13.85;2.90;;;;;;;;;;6116515;23;20064;-87
2023/12/10 03:17:10;;;;;;;15.65;3.47;;;;;;;;;;6141580;23;20021;-88
2023/12/10 03:19:38;;;;;;;11.43;2.47;;;;;;;;;;6141276;23;20013;-87
2023/12/10 03:22:04;;;;;;;17.33;2.57;;;;;;;;;;6114500;23;20084;-88
2023/12/10 03:24:30;;;;;;;7.68;2.25;;;;;;;;;;6143096;23;20017;-88
2023/12/10 03:26:56;;;;;;;15.55;3.10;;;;;;;;;;6139106;23;20024;-88
2023/12/10 03:29:22;;;;;;;15.77;2.60;;;;;;;;;;6117597;23;20533;-88
2023/12/10 03:31:48;;;;;;;7.93;2.90;;;;;;;;;;6140814;23;20022;-88
2023/12/10 03:34:14;;;;;;;12.38;2.33;;;;;;;;;;6141359;23;20081;-87
2023/12/10 03:36:40;;;;;;;17.50;2.90;;;;;;;;;;6116141;23;20040;-87
2023/12/10 03:39:06;;;;;;;10.75;2.30;;;;;;;;;;6138716;23;20017;-87
2023/12/10 03:41:32;;;;;;;10.27;2.83;;;;;;;;;;6142876;23;20112;-87
2023/12/10 03:43:58;;;;;;;12.85;2.40;;;;;;;;;;6140250;23;20014;-88
2023/12/10 03:46:24;;;;;;;11.68;2.08;;;;;;;;;;6140869;23;20020;-87
2023/12/10 03:48:51;;;;;;;15.32;2.55;;;;;;;;;;6113483;23;20328;-88
2023/12/10 03:51:17;;;;;;;14.48;2.25;;;;;;;;;;6141923;23;20105;-88
2023/12/10 03:53:43;;;;;;;14.63;2.75;;;;;;;;;;6140447;23;20360;-88
2023/12/10 03:56:10;;;;;;;13.98;1.80;;;;;;;;;;6114773;23;20802;-88
2023/12/10 03:58:37;;;;;;;10.77;2.17;;;;;;;;;;6141923;23;20476;-88
2023/12/10 04:01:03;;;;;;;10.88;2.17;;;;;;;;;;6138126;23;20026;-87
2023/12/10 04:03:29;;;;;;;8.77;2.40;;;;;;;;;;6144410;23;20084;-88
2023/12/10 04:05:55;;;;;;;7.82;1.40;;;;;;;;;;6138213;23;20021;-88
2023/12/10 04:08:21;;;;;;;8.38;1.90;;;;;;;;;;6116445;23;20018;-88
2023/12/10 04:10:47;;;;;;;6.30;1.55;;;;;;;;;;6138085;23;20018;-88
2023/12/10 04:13:13;;;;;;;6.10;1.65;;;;;;;;;;6139962;23;20029;-88
2023/12/10 04:15:41;;;;;;;6.55;1.95;;;;;;;;;;6142115;23;20021;-88
2023/12/10 04:18:07;;;;;;;4.72;1.70;;;;;;;;;;6138746;23;20136;-88
2023/12/10 04:20:33;;;;;;;10.52;1.75;;;;;;;;;;6166830;23;20093;-87
2023/12/10 04:22:59;;;;;;;8.70;1.42;;;;;;;;;;6139516;23;20029;-88
2023/12/10 04:25:25;;;;;;;9.35;1.90;;;;;;;;;;6142119;23;20734;-88
2023/12/10 04:27:51;;;;;;;5.63;1.70;;;;;;;;;;6162411;23;20032;-88
2023/12/10 04:30:19;;;;;;;5.10;1.75;;;;;;;;;;6141871;23;20025;-88
2023/12/10 04:32:46;;;;;;;8.98;1.50;;;;;;;;;;6140097;23;20446;-88
2023/12/10 04:35:12;;;;;;;12.60;1.55;;;;;;;;;;6119033;23;20029;-88
2023/12/10 04:37:38;;;;;;;4.60;1.58;;;;;;;;;;6167815;23;20108;-88
2023/12/10 04:40:04;;;;;;;4.82;1.35;;;;;;;;;;6140977;23;20470;-88
2023/12/10 04:42:30;;;;;;;5.75;1.63;;;;;;;;;;6140167;23;20525;-88
2023/12/10 04:44:56;;;;;;;7.22;1.27;;;;;;;;;;6140117;23;20017;-88
2023/12/10 04:47:22;;;;;;;4.60;1.30;;;;;;;;;;6165750;23;20024;-88
2023/12/10 04:49:48;;;;;;;5.10;1.40;;;;;;;;;;6135883;23;20319;-88
2023/12/10 04:52:14;;;;;;;5.85;1.35;;;;;;;;;;6142901;23;20029;-88
2023/12/10 04:54:40;;;;;;;10.73;1.42;;;;;;;;;;6116731;23;20014;-88
2023/12/10 04:57:06;;;;;;;4.38;1.33;;;;;;;;;;6141969;23;20358;-87
2023/12/10 04:59:32;;;;;;;3.80;1.30;;;;;;;;;;6141968;23;20338;-88
2023/12/10 05:01:58;;;;;;;8.18;1.65;;;;;;;;;;6163534;23;20059;-87
2023/12/10 05:04:24;;;;;;;8.77;1.60;;;;;;;;;;6123767;23;20018;-87
2023/12/10 05:06:50;;;;;;;9.15;1.77;;;;;;;;;;6144258;23;20109;-86
2023/12/10 05:09:16;;;;;;;9.00;2.08;;;;;;;;;;6147513;23;20022;-88
2023/12/10 05:11:42;;;;;;;8.82;1.90;;;;;;;;;;6154076;23;20010;-88
2023/12/10 05:14:08;;;;;;;4.97;2.25;;;;;;;;;;6138949;23;20113;-87
2023/12/10 05:16:34;;;;;;;3.72;1.50;;;;;;;;;;6140259;23;20412;-88
2023/12/10 05:19:00;;;;;;;5.43;1.40;;;;;;;;;;6139195;23;20018;-88
2023/12/10 05:21:26;;;;;;;5.65;2.28;;;;;;;;;;6142485;23;20032;-88
2023/12/10 05:23:52;;;;;;;5.50;1.40;;;;;;;;;;6137594;23;20018;-88
2023/12/10 05:26:19;;;;;;;8.55;1.50;;;;;;;;;;6141527;23;20333;-88
2023/12/10 05:28:47;;;;;;;9.50;2.47;;;;;;;;;;6143796;23;20022;-88
2023/12/10 05:31:13;;;;;;;10.25;1.67;;;;;;;;;;6141161;23;20022;-88
2023/12/10 05:33:39;;;;;;;7.55;2.22;;;;;;;;;;6141038;23;20049;-87
2023/12/10 05:36:06;;;;;;;9.70;1.63;;;;;;;;;;6137295;23;20093;-92
2023/12/10 05:38:32;;;;;;;5.28;1.40;;;;;;;;;;6141761;23;20021;-88
2023/12/10 05:40:58;;;;;;;3.13;1.52;;;;;;;;;;6137484;23;20200;-88
2023/12/10 05:43:24;;;;;;;5.07;1.40;;;;;;;;;;6116384;23;20029;-88
2023/12/10 05:45:50;;;;;;;5.20;1.27;;;;;;;;;;6114208;23;20025;-88
2023/12/10 05:48:16;;;;;;;5.93;1.95;;;;;;;;;;6142138;23;20025;-88
2023/12/10 05:50:42;;;;;;;4.95;1.55;;;;;;;;;;6139941;23;20013;-88
2023/12/10 05:53:08;;;;;;;2.95;1.05;;;;;;;;;;6112178;23;20020;-89
2023/12/10 05:55:34;;;;;;;7.85;1.75;;;;;;;;;;6139945;23;20021;-88
2023/12/10 05:58:00;;;;;;;4.10;1.13;;;;;;;;;;6138263;23;20017;-89
2023/12/10 06:00:26;;;;;;;6.95;1.25;;;;;;;;;;6139949;23;20382;-88
2023/12/10 06:02:52;;;;;;;7.90;1.40;;;;;;;;;;6138137;23;20072;-89
2023/12/10 06:05:18;;;;;;;5.85;1.30;;;;;;;;;;6139492;23;20021;-88
2023/12/10 06:07:47;;;;;;;5.43;1.50;;;;;;;;;;6140187;23;20321;-88
2023/12/10 06:10:13;;;;;;;5.20;2.03;;;;;;;;;;6141533;23;20065;-88
2023/12/10 06:12:39;;;;;;;10.13;1.40;;;;;;;;;;6140428;23;20509;-88
2023/12/10 06:15:05;;;;;;;7.35;1.30;;;;;;;;;;6138583;23;20511;-88
2023/12/10 06:17:31;;;;;;;7.47;1.40;;;;;;;;;;6143237;23;20067;-88
2023/12/10 06:19:57;;;;;;;10.23;1.65;;;;;;;;;;6141373;23;20116;-88
2023/12/10 06:22:23;;;;;;;4.65;1.73;;;;;;;;;;6143383;23;20365;-88
2023/12/10 06:24:51;;;;;;;7.68;1.40;;;;;;;;;;6139214;23;20017;-88
2023/12/10 06:27:17;;;;;;;5.05;1.10;;;;;;;;;;6143230;23;20029;-88
2023/12/10 06:29:43;;;;;;;9.35;1.42;;;;;;;;;;6142750;23;20057;-88
2023/12/10 06:32:09;;;;;;;8.07;1.60;;;;;;;;;;6141285;23;20458;-88
2023/12/10 06:34:35;;;;;;;13.00;1.67;;;;;;;;;;6144181;23;20032;-88
2023/12/10 06:37:01;;;;;;;6.55;2.13;;;;;;;;;;6142018;23;20018;-88
2023/12/10 06:39:27;;;;;;;9.07;1.58;;;;;;;;;;6144901;23;20407;-88
2023/12/10 06:41:53;;;;;;;5.35;1.45;;;;;;;;;;6140967;23;20022;-88
2023/12/10 06:44:21;;;;;;;7.75;1.80;;;;;;;;;;6118490;23;20095;-88
2023/12/10 06:46:47;;;;;;;7.32;1.30;;;;;;;;;;6139136;23;20478;-88
2023/12/10 06:49:14;;;;;;;11.10;1.90;;;;;;;;;;6144275;23;20025;-88
2023/12/10 06:51:40;;;;;;;13.43;1.55;;;;;;;;;;6143264;23;20135;-88
2023/12/10 06:54:06;;;;;;;10.35;1.75;;;;;;;;;;6114847;23;20025;-88
2023/12/10 06:56:38;;;;;;;13.32;1.90;;;;;;;;;;6143518;23;20071;-88
2023/12/10 06:59:04;;;;;;;9.18;1.80;;;;;;;;;;6139299;23;20375;-88
2023/12/10 07:01:30;;;;;;;10.27;2.55;;;;;;;;;;6142557;23;20434;-88
2023/12/10 07:03:56;;;;;;;6.82;1.70;;;;;;;;;;6137952;23;20402;-88
2023/12/10 07:06:22;;;;;;;4.88;1.42;;;;;;;;;;6141060;23;20021;-88
2023/12/10 07:08:48;;;;;;;9.68;1.95;;;;;;;;;;6137699;23;20021;-88
2023/12/10 07:11:14;;;;;;;5.68;1.42;;;;;;;;;;6139396;23;20032;-89
2023/12/10 07:13:40;;;;;;;7.75;1.50;;;;;;;;;;6143851;23;20079;-88
2023/12/10 07:16:06;;;;;;;8.38;1.70;;;;;;;;;;6139256;23;20982;-88
2023/12/10 07:18:32;;;;;;;13.88;2.03;;;;;;;;;;6140559;23;20018;-88
2023/12/10 07:20:58;;;;;;;11.55;2.60;;;;;;;;;;6113140;23;20033;-88
2023/12/10 07:23:25;;;;;;;7.00;1.60;;;;;;;;;;6139696;23;20455;-88
2023/12/10 07:25:51;;;;;;;10.95;1.98;;;;;;;;;;6139101;23;20022;-89
2023/12/10 07:28:17;;;;;;;16.50;3.53;;;;;;;;;;6140183;23;20080;-89
2023/12/10 07:30:43;;;;;;;13.65;2.70;;;;;;;;;;6140724;23;20060;-88
2023/12/10 07:33:10;;;;;;;16.70;2.95;;;;;;;;;;6137678;23;20254;-88
2023/12/10 07:35:36;;;;;;;13.55;3.30;;;;;;;;;;6141432;23;20017;-88
2023/12/10 07:38:02;;;;;;;18.55;2.80;;;;;;;;;;6137240;23;20010;-88
2023/12/10 07:40:28;;;;;;;15.20;2.30;;;;;;;;;;6143120;23;20517;-88
2023/12/10 07:42:55;;;;;;;16.42;2.40;;;;;;;;;;6137513;23;20022;-88
2023/12/10 07:45:21;;;;;;;14.45;2.15;;;;;;;;;;6140340;23;20653;-89
2023/12/10 07:47:47;;;;;;;12.00;2.00;;;;;;;;;;6138296;23;20071;-88
2023/12/10 07:50:13;;;;;;;9.00;1.73;;;;;;;;;;6142544;23;20024;-88
2023/12/10 07:52:39;;;;;;;8.02;2.58;;;;;;;;;;6142170;23;20536;-88
2023/12/10 07:55:06;;;;;;;5.43;1.33;;;;;;;;;;6139269;23;20984;-89
2023/12/10 07:57:32;;;;;;;11.30;1.90;;;;;;;;;;6140913;23;20096;-88
2023/12/10 07:59:58;;;;;;;8.35;2.10;;;;;;;;;;6139415;23;20072;-89
2023/12/10 08:02:24;;;;;;;15.98;1.90;;;;;;;;;;6139947;23;20477;-88
2023/12/10 08:04:50;;;;;;;7.80;1.50;;;;;;;;;;6135567;23;20044;-89
2023/12/10 08:07:16;;;;;;;4.55;1.80;;;;;;;;;;6142492;23;20018;-88
2023/12/10 08:09:42;;;;;;;17.65;2.30;;;;;;;;;;6115638;23;20021;-88
2023/12/10 08:12:08;;;;;;;11.75;1.85;;;;;;;;;;6136744;23;20022;-88
2023/12/10 08:14:35;;;;;;;10.52;2.00;;;;;;;;;;6115411;23;20051;-88
2023/12/10 08:17:01;;;;;;;12.38;2.35;;;;;;;;;;6138644;23;20067;-88
2023/12/10 08:19:27;;;;;;;6.22;1.40;;;;;;;;;;6141295;23;20096;-88
2023/12/10 08:21:53;;;;;;;10.68;1.65;;;;;;;;;;6113423;23;20435;-88
2023/12/10 08:24:19;;;;;;;9.75;1.77;;;;;;;;;;6115990;23;20056;-88
2023/12/10 08:26:45;;;;;;;7.80;1.50;;;;;;;;;;6135496;23;20447;-89
2023/12/10 08:29:11;;;;;;;7.20;1.52;;;;;;;;;;6142416;23;20017;-89
2023/12/10 08:31:37;;;;;;;12.68;2.10;;;;;;;;;;6141405;23;20024;-88
2023/12/10 08:34:03;;;;;;;9.88;1.65;;;;;;;;;;6137321;23;20477;-88
2023/12/10 08:36:29;;;;;;;9.75;1.77;;;;;;;;;;6116082;23;20026;-88
2023/12/10 08:38:57;;;;;;;14.43;2.00;;;;;;;;;;6137120;23;20463;-88
2023/12/10 08:41:23;;;;;;;11.38;1.80;;;;;;;;;;6140204;23;20447;-88
2023/12/10 08:43:49;;;;;;;7.13;1.70;;;;;;;;;;6138347;23;20018;-88
2023/12/10 08:46:15;;;;;;;7.53;1.30;;;;;;;;;;6140101;23;20088;-88
2023/12/10 08:48:42;;;;;;;7.68;2.28;;;;;;;;;;6139371;23;20496;-88
2023/12/10 08:51:08;;;;;;;14.45;2.88;;;;;;;;;;6137616;23;20356;-88
2023/12/10 08:53:34;;;;;;;6.78;1.88;;;;;;;;;;6137615;23;20090;-88
2023/12/10 08:56:00;;;;;;;10.65;2.38;;;;;;;;;;6136627;23;20024;-88
2023/12/10 08:58:29;;;;;;;9.98;1.48;;;;;;;;;;6141285;23;20469;-88
2023/12/10 09:00:55;;;;;;;9.98;1.67;;;;;;;;;;6139554;23;20435;-88
2023/12/10 09:03:21;;;;;;;8.75;1.65;;;;;;;;;;6139959;23;20066;-88
2023/12/10 09:05:47;;;;;;;10.98;1.80;;;;;;;;;;6136769;23;20021;-88
2023/12/10 09:08:13;;;;;;;8.23;2.42;;;;;;;;;;6139273;23;20478;-88
2023/12/10 09:10:39;;;;;;;11.57;1.80;;;;;;;;;;6137993;23;20021;-88
2023/12/10 09:13:05;;;;;;;9.07;1.83;;;;;;;;;;6136204;23;20341;-88
2023/12/10 09:15:31;;;;;;;15.52;2.50;;;;;;;;;;6141316;23;20089;-88
2023/12/10 09:17:57;;;;;;;10.13;1.77;;;;;;;;;;6136016;23;20088;-88
2023/12/10 09:20:23;;;;;;;17.05;1.90;;;;;;;;;;6116756;23;20018;-88
2023/12/10 09:22:49;;;;;;;14.73;1.80;;;;;;;;;;6111844;23;20493;-88
2023/12/10 09:25:15;;;;;;;8.70;1.60;;;;;;;;;;6115546;23;20088;-88
2023/12/10 09:27:41;;;;;;;10.50;1.60;;;;;;;;;;6138636;23;20188;-88
2023/12/10 09:30:07;;;;;;;8.43;1.45;;;;;;;;;;6137317;23;20026;-88
2023/12/10 09:32:34;;;;;;;14.50;1.70;;;;;;;;;;6113679;23;20022;-88
2023/12/10 09:35:00;;;;;;;11.55;1.92;;;;;;;;;;6134350;23;20036;-88
2023/12/10 09:37:27;;;;;;;12.52;1.85;;;;;;;;;;6139331;23;20021;-88
2023/12/10 09:39:53;;;;;;;17.05;2.00;;;;;;;;;;6137600;23;20543;-88
2023/12/10 09:42:19;;;;;;;11.60;1.90;;;;;;;;;;6138908;23;20837;-88
2023/12/10 09:44:46;;;;;;;12.65;2.03;;;;;;;;;;6138469;23;20022;-88
2023/12/10 09:47:12;;;;;;;13.35;2.55;;;;;;;;;;6113156;23;20514;-88
2023/12/10 09:49:41;;;;;;;13.95;2.40;;;;;;;;;;6142345;23;20021;-88
2023/12/10 09:52:07;;;;;;;12.70;2.15;;;;;;;;;;6139939;23;20032;-88
2023/12/10 09:54:33;;;;;;;7.70;1.92;;;;;;;;;;6141871;23;20472;-88
2023/12/10 09:56:59;;;;;;;12.52;2.08;;;;;;;;;;6137432;23;20060;-88
2023/12/10 09:59:25;;;;;;;18.00;2.63;;;;;;;;;;6142577;23;20056;-88
2023/12/10 10:01:53;;;;;;;24.67;3.33;;;;;;;;;;6113424;23;20108;-88
2023/12/10 10:04:19;;;;;;;15.88;3.05;;;;;;;;;;6142673;23;20808;-88
2023/12/10 10:06:45;;;;;;;23.08;3.13;;;;;;;;;;6139060;23;20021;-89
2023/12/10 10:09:11;;;;;;;17.10;2.75;;;;;;;;;;6116220;23;20446;-88
2023/12/10 10:11:39;;;;;;;20.52;3.88;;;;;;;;;;6140980;23;20455;-88
2023/12/10 10:14:05;;;;;;;16.40;2.70;;;;;;;;;;6138883;23;20538;-88
2023/12/10 10:16:31;;;;;;;17.25;2.50;;;;;;;;;;6117732;23;20454;-88
2023/12/10 10:18:57;;;;;;;31.60;3.88;;;;;;;;;;6138683;23;20103;-89
2023/12/10 10:21:24;;;;;;;27.92;3.95;;;;;;;;;;6141587;23;20024;-88
2023/12/10 10:23:50;;;;;;;18.13;3.47;;;;;;;;;;6137736;23;20033;-88
2023/12/10 10:26:16;;;;;;;18.92;3.47;;;;;;;;;;6114846;23;20111;-88
2023/12/10 10:28:42;;;;;;;22.67;3.85;;;;;;;;;;6141913;23;20328;-88
2023/12/10 10:31:11;;;;;;;21.25;3.05;;;;;;;;;;6115543;23;20068;-88
2023/12/10 10:33:37;;;;;;;22.83;4.95;;;;;;;;;;6116450;23;20021;-88
2023/12/10 10:36:03;;;;;;;17.23;3.80;;;;;;;;;;6137266;23;20245;-87
2023/12/10 10:38:29;;;;;;;19.95;3.40;;;;;;;;;;6137471;23;20368;-88
2023/12/10 10:40:58;;;;;;;23.42;4.30;;;;;;;;;;6115613;23;20021;-88
2023/12/10 10:43:24;;;;;;;21.77;4.32;;;;;;;;;;6163687;23;20512;-90
2023/12/10 10:45:50;;;;;;;22.00;4.22;;;;;;;;;;6113520;23;20360;-88
2023/12/10 10:48:16;;;;;;;19.40;3.45;;;;;;;;;;6136769;23;20013;-88
2023/12/10 10:50:42;;;;;;;30.98;4.43;;;;;;;;;;6142433;23;20047;-88
2023/12/10 10:53:08;;;;;;;22.10;3.42;;;;;;;;;;6140358;23;20502;-88
2023/12/10 10:55:34;;;;;;;26.23;3.88;;;;;;;;;;6143434;23;20455;-88
2023/12/10 10:58:18;;;;;;;21.80;3.60;;;;;;;;;;6140248;23;20355;-88
2023/12/10 11:00:45;;;;;;;17.05;3.55;;;;;;;;;;6115510;23;20061;-88
2023/12/10 11:03:11;;;;;;;21.75;4.30;;;;;;;;;;6140380;23;20018;-88
2023/12/10 11:05:37;;;;;;;16.02;3.70;;;;;;;;;;6139987;23;20014;-89
2023/12/10 11:08:08;;;;;;;12.85;3.85;;;;;;;;;;6138574;23;20101;-88
2023/12/10 11:10:34;;;;;;;16.35;3.10;;;;;;;;;;6145631;23;20025;-88
2023/12/10 11:13:00;;;;;;;21.40;3.20;;;;;;;;;;6141785;23;20080;-88
2023/12/10 11:15:27;;;;;;;22.45;3.15;;;;;;;;;;6120328;23;20363;-89
2023/12/10 11:17:57;;;;;;;14.48;2.80;;;;;;;;;;6139884;23;20033;-88
2023/12/10 11:20:33;;;;;;;16.58;3.35;;;;;;;;;;6144536;23;20022;-88
2023/12/10 11:23:06;;;;;;;10.55;2.58;;;;;;;;;;6140976;23;20116;-88
2023/12/10 11:25:32;;;;;;;22.88;4.25;;;;;;;;;;6145315;23;20021;-88
2023/12/10 11:27:58;;;;;;;10.88;2.78;;;;;;;;;;6143114;23;20024;-88
2023/12/10 11:30:24;;;;;;;18.23;2.60;;;;;;;;;;6144057;23;20044;-88
2023/12/10 11:32:50;;;;;;;15.10;3.03;;;;;;;;;;6140662;23;20032;-88
2023/12/10 11:35:16;;;;;;;17.58;2.70;;;;;;;;;;6144097;23;20040;-88
2023/12/10 11:37:43;;;;;;;19.30;2.88;;;;;;;;;;6117748;23;20025;-88
2023/12/10 11:40:09;;;;;;;19.42;3.88;;;;;;;;;;6140604;23;20638;-88
2023/12/10 11:42:35;;;;;;;14.77;2.58;;;;;;;;;;6118555;23;20020;-88
2023/12/10 11:45:02;;;;;;;18.88;3.20;;;;;;;;;;6141343;23;20076;-88
2023/12/10 11:47:28;;;;;;;15.05;3.92;;;;;;;;;;6168549;23;20014;-88
2023/12/10 11:49:57;;;;;;;25.88;3.05;;;;;;;;;;6166252;23;20390;-88
2023/12/10 11:52:23;;;;;;;21.38;3.25;;;;;;;;;;6143429;23;20076;-88
2023/12/10 11:54:49;;;;;;;18.95;3.17;;;;;;;;;;6140661;23;20351;-88
2023/12/10 11:57:16;;;;;;;17.88;3.53;;;;;;;;;;6119405;23;20342;-88
2023/12/10 11:59:45;;;;;;;16.83;3.28;;;;;;;;;;6169563;23;20025;-89
2023/12/10 12:02:11;;;;;;;24.75;3.15;;;;;;;;;;6118188;23;20010;-88
2023/12/10 12:04:37;;;;;;;8.68;2.42;;;;;;;;;;6138158;23;20029;-88
2023/12/10 12:07:03;;;;;;;24.38;3.08;;;;;;;;;;6137393;23;20018;-88
2023/12/10 12:10:06;;;;;;;14.25;2.45;;;;;;;;;;6140696;23;20032;-88
2023/12/10 12:13:13;;;;;;;15.70;2.67;;;;;;;;;;6134809;23;20051;-88
2023/12/10 12:17:25;;;;;;;14.88;3.15;;;;;;;;;;6123470;23;20242;-89
2023/12/10 12:23:02;;;;;;;19.95;2.88;;;;;;;;;;5995437;23;20421;-88
2023/12/10 12:29:08;;;;;;;;;;;;;;;;;;6016635;23;20110;-89
2023/12/10 12:32:18;;;;;;;15.90;2.97;;;;;;;;;;6059740;23;19993;-88
2023/12/10 12:39:07;;;;;;;;;;;;;;;;;;;;;
2023/12/10 13:50:27;;;;;;;11.88;2.40;;;;;;;;;;6118931;23;20374;-87
2023/12/10 13:57:29;;;;;;;14.85;1.90;;;;;;;;;;6056482;23;20026;-87
2023/12/10 14:00:13;;;;;;;;;;;;;;;;;;;;;
2023/12/10 14:59:58;;;;;;;;;;;;;;;;;;;;;
2023/12/10 18:46:49;;;;;;;16.67;3.97;;;;;;;;;;6146155;23;20028;-84
2023/12/10 18:49:31;;;;;;;17.75;4.78;;;;;;;;;;6140795;23;20078;-84
2023/12/10 18:53:07;;;;;;;;;;;;;;;;;;;;;
2023/12/10 18:56:15;;;;;;;21.20;4.95;;;;;;;;;;6019502;23;20023;-85
2023/12/10 19:02:07;;;;;;;;;;;;;;;;;;;;;
2023/12/10 19:04:50;;;;;;;12.60;4.20;;;;;;;;;;6137995;23;20013;-85
2023/12/10 19:07:59;;;;;;;12.35;3.42;;;;;;;;;;6139017;23;20028;-85
2023/12/10 19:21:11;;;;;;;;;;;;;;;;;;;;;
2023/12/10 19:24:23;;;;;;;9.57;3.85;;;;;;;;;;6047623;23;20015;-84
2023/12/10 21:09:24;;;;;;;4.90;2.80;;;;;;;;;;6143009;23;20033;-86
2023/12/10 21:34:12;;;;;;;7.95;4.07;;;;;;;;;;6011663;23;20019;-87
2023/12/10 21:36:31;;;;;;;;;;;;;;;;;;5981929;23;20058;-86
2023/12/10 21:45:08;;;;;;;7.85;5.90;;;;;;;;;;6115047;23;20455;-87
2023/12/10 22:26:37;;;;;;;6.43;2.72;;;;;;;;;;6127943;23;20025;-87
2023/12/10 22:33:53;;;;;;;;;;;;;;;;;;;;;
2023/12/10 23:12:42;;;;;;;11.35;2.60;;;;;;;;;;5859509;24;20303;-88
2023/12/10 23:22:42;;;;;;;;;;;;;;;;;;;;;
2023/12/10 23:44:09;;;;;;;22.73;3.47;;;;;;;;;;5907814;23;20048;-89
2023/12/10 23:46:38;;;;;;;22.27;3.15;;;;;;;;;;6067079;23;20037;-89
2023/12/10 23:49:05;;;;;;;19.83;3.05;;;;;;;;;;6064542;23;20446;-88
2023/12/10 23:51:31;;;;;;;24.48;4.32;;;;;;;;;;6118348;23;20021;-88
2023/12/10 23:53:57;;;;;;;20.00;3.88;;;;;;;;;;6091644;23;20021;-89
2023/12/10 23:56:23;;;;;;;22.13;3.53;;;;;;;;;;6095400;23;20662;-89
2023/12/10 23:58:49;;;;;;;20.17;3.45;;;;;;;;;;6090237;23;20029;-88
